Private Wetterstation Sandau
Wetterdaten: Samstag, 11.08.2012
Datum Zeit Temp. A. Feuchte A. Luftdruck Regen Wind Richtung Richtung Taupunkt Windchill
11.08.2012 00:01 14,9 C 83 % 1023,7 hPa 0,0 l/m 5,8 km/h (2 Bft) N-NW 337 12,0 C 14,9 C
11.08.2012 00:06 14,9 C 83 % 1023,7 hPa 0,0 l/m 4,0 km/h (1 Bft) NW 315 12,0 C 14,9 C
11.08.2012 00:11 14,9 C 83 % 1023,7 hPa 0,0 l/m 3,6 km/h (1 Bft) N 360 12,0 C 14,9 C
11.08.2012 00:16 14,9 C 83 % 1023,7 hPa 0,0 l/m 1,1 km/h (1 Bft) NW 315 12,0 C 14,9 C
11.08.2012 00:21 14,9 C 84 % 1023,6 hPa 0,0 l/m 4,0 km/h (1 Bft) NW 315 12,2 C 14,9 C
11.08.2012 00:26 14,9 C 84 % 1023,6 hPa 0,0 l/m 2,2 km/h (1 Bft) N 360 12,2 C 14,9 C
11.08.2012 00:31 14,8 C 84 % 1023,5 hPa 0,0 l/m 2,9 km/h (1 Bft) NW 315 12,1 C 14,8 C
11.08.2012 00:36 14,8 C 84 % 1023,6 hPa 0,0 l/m 3,2 km/h (1 Bft) NW 315 12,1 C 14,8 C
11.08.2012 00:41 14,8 C 84 % 1023,7 hPa 0,0 l/m 2,5 km/h (1 Bft) NW 315 12,1 C 14,8 C
11.08.2012 00:46 14,8 C 84 % 1023,6 hPa 0,0 l/m 5,8 km/h (2 Bft) N 360 12,1 C 14,8 C
11.08.2012 00:51 14,8 C 84 % 1023,5 hPa 0,0 l/m 5,4 km/h (1 Bft) N-NW 337 12,1 C 14,8 C
11.08.2012 00:56 14,7 C 83 % 1023,6 hPa 0,0 l/m 3,6 km/h (1 Bft) W-NW 292 11,8 C 14,7 C
11.08.2012 01:01 14,7 C 83 % 1023,6 hPa 0,0 l/m 6,1 km/h (2 Bft) NW 315 11,8 C 14,7 C
11.08.2012 01:06 14,6 C 83 % 1023,5 hPa 0,0 l/m 6,1 km/h (2 Bft) NW 315 11,7 C 14,6 C
11.08.2012 01:11 14,6 C 83 % 1023,7 hPa 0,0 l/m 1,8 km/h (1 Bft) W-NW 292 11,7 C 14,6 C
11.08.2012 01:16 14,6 C 83 % 1023,6 hPa 0,0 l/m 10,8 km/h (2 Bft) NW 315 11,7 C 14,6 C
11.08.2012 01:21 14,6 C 83 % 1023,6 hPa 0,0 l/m 0,0 km/h (0 Bft) NW 315 11,7 C 14,6 C
11.08.2012 01:26 14,6 C 82 % 1023,6 hPa 0,0 l/m 4,0 km/h (1 Bft) NW 315 11,6 C 14,6 C
11.08.2012 01:31 14,6 C 82 % 1023,7 hPa 0,0 l/m 4,0 km/h (1 Bft) NW 315 11,6 C 14,6 C
11.08.2012 01:36 14,5 C 82 % 1023,7 hPa 0,0 l/m 8,3 km/h (2 Bft) N-NW 337 11,5 C 14,5 C
11.08.2012 01:41 14,5 C 82 % 1023,8 hPa 0,0 l/m 4,0 km/h (1 Bft) N-NW 337 11,5 C 14,5 C
11.08.2012 01:46 14,5 C 82 % 1023,7 hPa 0,0 l/m 1,4 km/h (1 Bft) N 360 11,5 C 14,5 C
11.08.2012 01:51 14,4 C 82 % 1023,7 hPa 0,0 l/m 0,0 km/h (0 Bft) N 360 11,4 C 14,4 C
11.08.2012 01:56 14,3 C 82 % 1023,7 hPa 0,0 l/m 5,8 km/h (2 Bft) NW 315 11,3 C 14,3 C
11.08.2012 02:01 14,3 C 82 % 1023,7 hPa 0,0 l/m 1,4 km/h (1 Bft) NW 315 11,3 C 14,3 C
11.08.2012 02:06 14,1 C 82 % 1023,7 hPa 0,0 l/m 2,2 km/h (1 Bft) N 360 11,1 C 14,1 C
11.08.2012 02:11 14,1 C 82 % 1023,8 hPa 0,0 l/m 3,2 km/h (1 Bft) NW 315 11,1 C 14,1 C
11.08.2012 02:16 14,0 C 82 % 1023,8 hPa 0,0 l/m 2,2 km/h (1 Bft) N 360 11,0 C 14,0 C
11.08.2012 02:21 13,9 C 82 % 1023,7 hPa 0,0 l/m 4,7 km/h (1 Bft) N-NW 337 10,9 C 13,9 C
11.08.2012 02:26 13,9 C 82 % 1023,7 hPa 0,0 l/m 1,8 km/h (1 Bft) N 360 10,9 C 13,9 C
11.08.2012 02:31 13,8 C 82 % 1023,7 hPa 0,0 l/m 3,2 km/h (1 Bft) NW 315 10,8 C 13,8 C
11.08.2012 02:36 13,6 C 83 % 1023,8 hPa 0,0 l/m 3,6 km/h (1 Bft) N 360 10,8 C 13,6 C
11.08.2012 02:41 13,6 C 83 % 1023,7 hPa 0,0 l/m 3,6 km/h (1 Bft) N-NW 337 10,8 C 13,6 C
11.08.2012 02:46 13,5 C 83 % 1023,8 hPa 0,0 l/m 2,2 km/h (1 Bft) NW 315 10,7 C 13,5 C
11.08.2012 02:51 13,4 C 83 % 1023,9 hPa 0,0 l/m 5,0 km/h (1 Bft) N-NW 337 10,6 C 13,4 C
11.08.2012 02:56 13,3 C 83 % 1023,8 hPa 0,0 l/m 0,0 km/h (0 Bft) W-NW 292 10,5 C 13,3 C
11.08.2012 03:01 13,3 C 83 % 1023,7 hPa 0,0 l/m 0,0 km/h (0 Bft) W-NW 292 10,5 C 13,3 C
11.08.2012 03:06 13,2 C 84 % 1023,6 hPa 0,0 l/m 2,2 km/h (1 Bft) NW 315 10,6 C 13,2 C
11.08.2012 03:11 13,1 C 84 % 1023,6 hPa 0,0 l/m 0,0 km/h (0 Bft) NW 315 10,5 C 13,1 C
11.08.2012 03:16 13,1 C 84 % 1023,5 hPa 0,0 l/m 4,0 km/h (1 Bft) NW 315 10,5 C 13,1 C
11.08.2012 03:21 13,0 C 84 % 1023,7 hPa 0,0 l/m 2,2 km/h (1 Bft) NW 315 10,4 C 13,0 C
11.08.2012 03:26 12,9 C 84 % 1023,7 hPa 0,0 l/m 2,9 km/h (1 Bft) NW 315 10,3 C 12,9 C
11.08.2012 03:31 12,9 C 85 % 1023,6 hPa 0,0 l/m 4,0 km/h (1 Bft) N-NW 337 10,4 C 12,9 C
11.08.2012 03:36 12,9 C 85 % 1023,6 hPa 0,0 l/m 5,8 km/h (2 Bft) N-NW 337 10,4 C 12,9 C
11.08.2012 03:41 12,9 C 85 % 1023,7 hPa 0,0 l/m 4,3 km/h (1 Bft) W-NW 292 10,4 C 12,9 C
11.08.2012 03:46 13,0 C 85 % 1023,6 hPa 0,0 l/m 4,7 km/h (1 Bft) NW 315 10,5 C 13,0 C
11.08.2012 03:51 13,0 C 85 % 1023,6 hPa 0,0 l/m 2,5 km/h (1 Bft) NW 315 10,5 C 13,0 C
11.08.2012 03:56 13,1 C 85 % 1023,5 hPa 0,0 l/m 2,5 km/h (1 Bft) N-NW 337 10,6 C 13,1 C
11.08.2012 04:01 13,1 C 85 % 1023,6 hPa 0,0 l/m 2,5 km/h (1 Bft) N-NO 22 10,6 C 13,1 C
11.08.2012 04:06 13,1 C 85 % 1023,6 hPa 0,0 l/m 2,9 km/h (1 Bft) N 360 10,6 C 13,1 C
11.08.2012 04:11 13,1 C 85 % 1023,6 hPa 0,0 l/m 2,2 km/h (1 Bft) N-NO 22 10,6 C 13,1 C
11.08.2012 04:16 13,1 C 85 % 1023,7 hPa 0,0 l/m 1,8 km/h (1 Bft) N-NO 22 10,6 C 13,1 C
11.08.2012 04:21 13,1 C 85 % 1023,7 hPa 0,0 l/m 1,8 km/h (1 Bft) NW 315 10,6 C 13,1 C
11.08.2012 04:26 13,1 C 85 % 1023,6 hPa 0,0 l/m 0,0 km/h (0 Bft) W-NW 292 10,6 C 13,1 C
11.08.2012 04:31 13,2 C 85 % 1023,7 hPa 0,0 l/m 4,3 km/h (1 Bft) NW 315 10,7 C 13,2 C
11.08.2012 04:36 13,1 C 85 % 1023,6 hPa 0,0 l/m 0,0 km/h (0 Bft) W-NW 292 10,6 C 13,1 C
11.08.2012 04:41 13,1 C 85 % 1023,7 hPa 0,0 l/m 2,2 km/h (1 Bft) N 360 10,6 C 13,1 C
11.08.2012 04:46 13,1 C 85 % 1023,7 hPa 0,0 l/m 4,0 km/h (1 Bft) NW 315 10,6 C 13,1 C
11.08.2012 04:51 12,9 C 85 % 1023,6 hPa 0,0 l/m 4,7 km/h (1 Bft) NW 315 10,4 C 12,9 C
11.08.2012 04:56 12,9 C 85 % 1023,7 hPa 0,0 l/m 0,0 km/h (0 Bft) NW 315 10,4 C 12,9 C
11.08.2012 05:01 12,8 C 84 % 1023,7 hPa 0,0 l/m 2,5 km/h (1 Bft) W-NW 292 10,2 C 12,8 C
11.08.2012 05:06 12,7 C 84 % 1023,7 hPa 0,0 l/m 0,0 km/h (0 Bft) NW 315 10,1 C 12,7 C
11.08.2012 05:11 12,5 C 85 % 1023,7 hPa 0,0 l/m 1,8 km/h (1 Bft) W-NW 292 10,0 C 12,5 C
11.08.2012 05:16 12,4 C 85 % 1023,7 hPa 0,0 l/m 1,1 km/h (1 Bft) W-NW 292 9,9 C 12,4 C
11.08.2012 05:21 12,4 C 85 % 1023,7 hPa 0,0 l/m 2,5 km/h (1 Bft) W-NW 292 9,9 C 12,4 C
11.08.2012 05:26 12,2 C 85 % 1023,9 hPa 0,0 l/m 0,0 km/h (0 Bft) W 270 9,8 C 12,2 C
11.08.2012 05:31 12,1 C 85 % 1023,9 hPa 0,0 l/m 0,0 km/h (0 Bft) W-NW 292 9,7 C 12,1 C
11.08.2012 05:36 12,1 C 85 % 1024,0 hPa 0,0 l/m 2,2 km/h (1 Bft) W-NW 292 9,7 C 12,1 C
11.08.2012 05:41 11,9 C 85 % 1024,0 hPa 0,0 l/m 0,0 km/h (0 Bft) W-NW 292 9,5 C 11,9 C
11.08.2012 05:46 11,9 C 86 % 1024,0 hPa 0,0 l/m 1,4 km/h (1 Bft) W-NW 292 9,6 C 11,9 C
11.08.2012 05:51 11,8 C 86 % 1024,1 hPa 0,0 l/m 3,2 km/h (1 Bft) NW 315 9,5 C 11,8 C
11.08.2012 05:56 11,7 C 86 % 1024,1 hPa 0,0 l/m 0,0 km/h (0 Bft) NW 315 9,4 C 11,7 C
11.08.2012 06:01 11,6 C 86 % 1024,2 hPa 0,0 l/m 2,5 km/h (1 Bft) N-NO 22 9,3 C 11,6 C
11.08.2012 06:06 11,6 C 86 % 1024,2 hPa 0,0 l/m 0,0 km/h (0 Bft) W-NW 292 9,3 C 11,6 C
11.08.2012 06:11 11,6 C 87 % 1024,3 hPa 0,0 l/m 2,2 km/h (1 Bft) N-NW 337 9,5 C 11,6 C
11.08.2012 06:16 11,6 C 87 % 1024,3 hPa 0,0 l/m 1,4 km/h (1 Bft) NW 315 9,5 C 11,6 C
11.08.2012 06:21 11,6 C 87 % 1024,3 hPa 0,0 l/m 0,0 km/h (0 Bft) W-NW 292 9,5 C 11,6 C
11.08.2012 06:26 11,7 C 87 % 1024,3 hPa 0,0 l/m 0,0 km/h (0 Bft) N 360 9,6 C 11,7 C
11.08.2012 06:31 11,8 C 87 % 1024,2 hPa 0,0 l/m 1,8 km/h (1 Bft) N 360 9,7 C 11,8 C
11.08.2012 06:36 11,8 C 87 % 1024,3 hPa 0,0 l/m 0,0 km/h (0 Bft) N 360 9,7 C 11,8 C
11.08.2012 06:41 11,8 C 87 % 1024,2 hPa 0,0 l/m 0,0 km/h (0 Bft) N 360 9,7 C 11,8 C
11.08.2012 06:46 12,1 C 88 % 1024,2 hPa 0,0 l/m 2,2 km/h (1 Bft) N-NW 337 10,2 C 12,1 C
11.08.2012 06:51 12,8 C 89 % 1024,2 hPa 0,0 l/m 2,2 km/h (1 Bft) NW 315 11,0 C 12,8 C
11.08.2012 06:56 13,8 C 88 % 1024,3 hPa 0,0 l/m 0,0 km/h (0 Bft) N 360 11,8 C 13,8 C
11.08.2012 07:01 14,4 C 85 % 1024,3 hPa 0,0 l/m 5,4 km/h (1 Bft) N-NW 337 11,9 C 14,4 C
11.08.2012 07:06 14,9 C 83 % 1024,3 hPa 0,0 l/m 4,3 km/h (1 Bft) N-NW 337 12,0 C 14,9 C
11.08.2012 07:11 14,9 C 80 % 1024,3 hPa 0,0 l/m 4,0 km/h (1 Bft) N 360 11,5 C 14,9 C
11.08.2012 07:16 14,7 C 80 % 1024,3 hPa 0,0 l/m 3,2 km/h (1 Bft) N-NW 337 11,3 C 14,7 C
11.08.2012 07:21 14,7 C 80 % 1024,3 hPa 0,0 l/m 2,9 km/h (1 Bft) NO 45 11,3 C 14,7 C
11.08.2012 07:26 14,5 C 80 % 1024,4 hPa 0,0 l/m 3,2 km/h (1 Bft) N-NO 22 11,1 C 14,5 C
11.08.2012 07:31 14,4 C 81 % 1024,4 hPa 0,0 l/m 4,0 km/h (1 Bft) N-NO 22 11,2 C 14,4 C
11.08.2012 07:36 14,5 C 81 % 1024,4 hPa 0,0 l/m 3,2 km/h (1 Bft) N 360 11,3 C 14,5 C
11.08.2012 07:41 14,6 C 82 % 1024,4 hPa 0,0 l/m 0,0 km/h (0 Bft) N-NO 22 11,6 C 14,6 C
11.08.2012 07:46 14,9 C 81 % 1024,5 hPa 0,0 l/m 1,4 km/h (1 Bft) NO 45 11,7 C 14,9 C
11.08.2012 07:51 15,1 C 81 % 1024,4 hPa 0,0 l/m 5,0 km/h (1 Bft) N 360 11,9 C 15,1 C
11.08.2012 07:56 15,4 C 80 % 1024,5 hPa 0,0 l/m 0,0 km/h (0 Bft) N-NO 22 12,0 C 15,4 C
11.08.2012 08:01 15,5 C 80 % 1024,5 hPa 0,0 l/m 0,0 km/h (0 Bft) NO 45 12,1 C 15,5 C
11.08.2012 08:06 15,8 C 80 % 1024,5 hPa 0,0 l/m 1,4 km/h (1 Bft) O-NO 67 12,4 C 15,8 C
11.08.2012 08:11 15,8 C 78 % 1024,6 hPa 0,0 l/m 2,5 km/h (1 Bft) O-NO 67 12,0 C 15,8 C
11.08.2012 08:16 15,9 C 78 % 1024,5 hPa 0,0 l/m 0,0 km/h (0 Bft) O-NO 67 12,1 C 15,9 C
11.08.2012 08:21 16,1 C 79 % 1024,6 hPa 0,0 l/m 3,2 km/h (1 Bft) NO 45 12,5 C 16,1 C
11.08.2012 08:26 16,1 C 78 % 1024,7 hPa 0,0 l/m 5,0 km/h (1 Bft) O 90 12,3 C 16,1 C
11.08.2012 08:31 16,1 C 77 % 1024,7 hPa 0,0 l/m 3,2 km/h (1 Bft) S-SO 157 12,1 C 16,1 C
11.08.2012 08:36 16,3 C 77 % 1024,6 hPa 0,0 l/m 5,4 km/h (1 Bft) O-SO 112 12,3 C 16,3 C
11.08.2012 08:41 16,3 C 77 % 1024,7 hPa 0,0 l/m 2,2 km/h (1 Bft) S-SO 157 12,3 C 16,3 C
11.08.2012 08:46 16,4 C 77 % 1024,6 hPa 0,0 l/m 4,0 km/h (1 Bft) O 90 12,4 C 16,4 C
11.08.2012 08:51 16,4 C 77 % 1024,7 hPa 0,0 l/m 0,0 km/h (0 Bft) O-NO 67 12,4 C 16,4 C
11.08.2012 08:56 16,6 C 77 % 1024,7 hPa 0,0 l/m 12,2 km/h (2 Bft) O-SO 112 12,5 C 16,6 C
11.08.2012 09:01 16,6 C 76 % 1024,6 hPa 0,0 l/m 7,6 km/h (2 Bft) O 90 12,3 C 16,6 C
11.08.2012 09:06 16,8 C 75 % 1024,7 hPa 0,0 l/m 2,9 km/h (1 Bft) O-NO 67 12,3 C 16,8 C
11.08.2012 09:11 17,0 C 75 % 1024,7 hPa 0,0 l/m 8,6 km/h (2 Bft) O-NO 67 12,5 C 17,0 C
11.08.2012 09:16 17,2 C 73 % 1024,8 hPa 0,0 l/m 7,6 km/h (2 Bft) NO 45 12,3 C 17,2 C
11.08.2012 09:21 17,3 C 72 % 1024,8 hPa 0,0 l/m 2,2 km/h (1 Bft) O 90 12,2 C 17,3 C
11.08.2012 09:26 17,3 C 72 % 1024,9 hPa 0,0 l/m 7,2 km/h (2 Bft) O-NO 67 12,2 C 17,3 C
11.08.2012 09:31 17,4 C 72 % 1024,7 hPa 0,0 l/m 4,0 km/h (1 Bft) O-NO 67 12,3 C 17,4 C
11.08.2012 09:36 17,5 C 71 % 1024,9 hPa 0,0 l/m 2,9 km/h (1 Bft) SO 135 12,2 C 17,5 C
11.08.2012 09:41 17,8 C 70 % 1024,8 hPa 0,0 l/m 4,3 km/h (1 Bft) O-NO 67 12,3 C 17,8 C
11.08.2012 09:46 17,6 C 69 % 1024,9 hPa 0,0 l/m 10,8 km/h (2 Bft) SO 135 11,8 C 17,6 C
11.08.2012 09:51 17,8 C 68 % 1024,9 hPa 0,0 l/m 7,2 km/h (2 Bft) O 90 11,8 C 17,8 C
11.08.2012 09:56 17,8 C 67 % 1024,9 hPa 0,0 l/m 6,5 km/h (2 Bft) O-SO 112 11,6 C 17,8 C
11.08.2012 10:01 17,8 C 65 % 1024,9 hPa 0,0 l/m 7,6 km/h (2 Bft) O-NO 67 11,1 C 17,8 C
11.08.2012 10:06 17,8 C 65 % 1024,8 hPa 0,0 l/m 5,0 km/h (1 Bft) NO 45 11,1 C 17,8 C
11.08.2012 10:11 17,9 C 63 % 1024,9 hPa 0,0 l/m 3,2 km/h (1 Bft) O-NO 67 10,8 C 17,9 C
11.08.2012 10:16 18,1 C 62 % 1025,0 hPa 0,0 l/m 2,5 km/h (1 Bft) S-SO 157 10,7 C 18,1 C
11.08.2012 10:21 18,3 C 60 % 1025,0 hPa 0,0 l/m 4,3 km/h (1 Bft) SO 135 10,4 C 18,3 C
11.08.2012 10:26 18,5 C 60 % 1024,9 hPa 0,0 l/m 9,4 km/h (2 Bft) S-SO 157 10,6 C 18,5 C
11.08.2012 10:31 18,7 C 58 % 1024,9 hPa 0,0 l/m 8,6 km/h (2 Bft) S-SO 157 10,3 C 18,7 C
11.08.2012 10:36 18,9 C 58 % 1025,0 hPa 0,0 l/m 11,2 km/h (2 Bft) O 90 10,5 C 18,9 C
11.08.2012 10:41 18,9 C 56 % 1025,1 hPa 0,0 l/m 6,1 km/h (2 Bft) O-SO 112 9,9 C 18,9 C
11.08.2012 10:46 19,1 C 57 % 1025,1 hPa 0,0 l/m 6,1 km/h (2 Bft) O 90 10,4 C 19,1 C
11.08.2012 10:51 19,2 C 57 % 1025,0 hPa 0,0 l/m 7,2 km/h (2 Bft) O-SO 112 10,5 C 19,2 C
11.08.2012 10:56 19,3 C 56 % 1025,1 hPa 0,0 l/m 9,4 km/h (2 Bft) NO 45 10,3 C 19,3 C
11.08.2012 11:01 19,3 C 56 % 1025,1 hPa 0,0 l/m 6,1 km/h (2 Bft) NO 45 10,3 C 19,3 C
11.08.2012 11:06 19,3 C 54 % 1025,1 hPa 0,0 l/m 6,1 km/h (2 Bft) O-NO 67 9,8 C 19,3 C
11.08.2012 11:11 19,3 C 54 % 1025,0 hPa 0,0 l/m 3,6 km/h (1 Bft) NO 45 9,8 C 19,3 C
11.08.2012 11:16 18,9 C 55 % 1025,0 hPa 0,0 l/m 4,0 km/h (1 Bft) O-NO 67 9,7 C 18,9 C
11.08.2012 11:21 18,8 C 54 % 1025,1 hPa 0,0 l/m 1,4 km/h (1 Bft) NO 45 9,3 C 18,8 C
11.08.2012 11:26 18,9 C 57 % 1025,0 hPa 0,0 l/m 6,1 km/h (2 Bft) S-SO 157 10,2 C 18,9 C
11.08.2012 11:31 19,3 C 57 % 1025,0 hPa 0,0 l/m 2,5 km/h (1 Bft) SO 135 10,6 C 19,3 C
11.08.2012 11:36 19,7 C 55 % 1025,1 hPa 0,0 l/m 0,0 km/h (0 Bft) O-NO 67 10,4 C 19,7 C
11.08.2012 11:41 19,8 C 55 % 1025,0 hPa 0,0 l/m 4,0 km/h (1 Bft) NO 45 10,5 C 19,8 C
11.08.2012 11:46 19,6 C 54 % 1024,9 hPa 0,0 l/m 2,2 km/h (1 Bft) O-NO 67 10,0 C 19,6 C
11.08.2012 11:51 19,8 C 54 % 1025,0 hPa 0,0 l/m 4,0 km/h (1 Bft) NO 45 10,2 C 19,8 C
11.08.2012 11:56 20,1 C 53 % 1024,9 hPa 0,0 l/m 4,3 km/h (1 Bft) O 90 10,2 C 20,1 C
11.08.2012 12:01 20,3 C 53 % 1024,9 hPa 0,0 l/m 5,0 km/h (1 Bft) SO 135 10,4 C 20,3 C
11.08.2012 12:06 20,6 C 52 % 1024,9 hPa 0,0 l/m 0,0 km/h (0 Bft) SO 135 10,4 C 20,6 C
11.08.2012 12:11 21,0 C 53 % 1025,0 hPa 0,0 l/m 5,4 km/h (1 Bft) SO 135 11,0 C 21,0 C
11.08.2012 12:16 21,2 C 50 % 1025,0 hPa 0,0 l/m 5,8 km/h (2 Bft) O-NO 67 10,4 C 21,2 C
11.08.2012 12:21 21,1 C 50 % 1025,0 hPa 0,0 l/m 6,8 km/h (2 Bft) O-SO 112 10,3 C 21,1 C
11.08.2012 12:26 21,4 C 50 % 1024,9 hPa 0,0 l/m 0,0 km/h (0 Bft) N 360 10,5 C 21,4 C
11.08.2012 12:31 21,8 C 50 % 1024,7 hPa 0,0 l/m 9,4 km/h (2 Bft) S-SO 157 10,9 C 21,8 C
11.08.2012 12:36 21,9 C 49 % 1024,7 hPa 0,0 l/m 10,1 km/h (2 Bft) SO 135 10,7 C 21,9 C
11.08.2012 12:41 21,8 C 48 % 1024,7 hPa 0,0 l/m 9,4 km/h (2 Bft) O-NO 67 10,3 C 21,8 C
11.08.2012 12:46 21,2 C 48 % 1024,8 hPa 0,0 l/m 3,6 km/h (1 Bft) O-NO 67 9,7 C 21,2 C
11.08.2012 12:51 20,8 C 50 % 1024,7 hPa 0,0 l/m 3,2 km/h (1 Bft) O-NO 67 10,0 C 20,8 C
11.08.2012 12:56 20,6 C 50 % 1024,7 hPa 0,0 l/m 4,3 km/h (1 Bft) NO 45 9,8 C 20,6 C
11.08.2012 13:01 21,0 C 50 % 1024,7 hPa 0,0 l/m 6,1 km/h (2 Bft) O-NO 67 10,2 C 21,0 C
11.08.2012 13:06 21,3 C 49 % 1024,6 hPa 0,0 l/m 2,5 km/h (1 Bft) N-NO 22 10,1 C 21,3 C
11.08.2012 13:11 21,6 C 48 % 1024,6 hPa 0,0 l/m 3,6 km/h (1 Bft) NO 45 10,1 C 21,6 C
11.08.2012 13:16 21,8 C 48 % 1024,6 hPa 0,0 l/m 5,8 km/h (2 Bft) O-NO 67 10,3 C 21,8 C
11.08.2012 13:21 21,9 C 46 % 1024,6 hPa 0,0 l/m 6,8 km/h (2 Bft) O-NO 67 9,7 C 21,9 C
11.08.2012 13:26 21,7 C 47 % 1024,5 hPa 0,0 l/m 6,5 km/h (2 Bft) O-NO 67 9,9 C 21,7 C
11.08.2012 13:31 21,6 C 48 % 1024,5 hPa 0,0 l/m 2,5 km/h (1 Bft) NO 45 10,1 C 21,6 C
11.08.2012 13:36 21,9 C 45 % 1024,4 hPa 0,0 l/m 3,6 km/h (1 Bft) O-NO 67 9,4 C 21,9 C
11.08.2012 13:41 22,1 C 45 % 1024,4 hPa 0,0 l/m 13,0 km/h (3 Bft) O-SO 112 9,6 C 22,1 C
11.08.2012 13:46 22,3 C 45 % 1024,3 hPa 0,0 l/m 6,5 km/h (2 Bft) N-NO 22 9,8 C 22,3 C
11.08.2012 13:51 22,4 C 44 % 1024,5 hPa 0,0 l/m 4,0 km/h (1 Bft) O-NO 67 9,5 C 22,4 C
11.08.2012 13:56 22,8 C 45 % 1024,4 hPa 0,0 l/m 4,7 km/h (1 Bft) S-SO 157 10,2 C 22,8 C
11.08.2012 14:01 23,4 C 44 % 1024,3 hPa 0,0 l/m 8,6 km/h (2 Bft) O-SO 112 10,4 C 23,4 C
11.08.2012 14:06 23,5 C 42 % 1024,3 hPa 0,0 l/m 9,4 km/h (2 Bft) O-NO 67 9,8 C 23,5 C
11.08.2012 14:11 22,9 C 42 % 1024,3 hPa 0,0 l/m 8,6 km/h (2 Bft) NO 45 9,3 C 22,9 C
11.08.2012 14:16 22,4 C 44 % 1024,2 hPa 0,0 l/m 4,0 km/h (1 Bft) N 360 9,5 C 22,4 C
11.08.2012 14:21 21,8 C 46 % 1024,3 hPa 0,0 l/m 5,0 km/h (1 Bft) O-NO 67 9,7 C 21,8 C
11.08.2012 14:26 21,8 C 46 % 1024,2 hPa 0,0 l/m 5,8 km/h (2 Bft) NO 45 9,7 C 21,8 C
11.08.2012 14:31 21,9 C 46 % 1024,2 hPa 0,0 l/m 2,9 km/h (1 Bft) O-SO 112 9,7 C 21,9 C
11.08.2012 14:36 22,4 C 45 % 1024,3 hPa 0,0 l/m 8,3 km/h (2 Bft) O-NO 67 9,9 C 22,4 C
11.08.2012 14:41 22,6 C 45 % 1024,4 hPa 0,0 l/m 2,2 km/h (1 Bft) SO 135 10,1 C 22,6 C
11.08.2012 14:46 22,6 C 42 % 1024,4 hPa 0,0 l/m 0,0 km/h (0 Bft) N-NO 22 9,0 C 22,6 C
11.08.2012 14:51 22,9 C 41 % 1024,2 hPa 0,0 l/m 2,9 km/h (1 Bft) N-NO 22 8,9 C 22,9 C
11.08.2012 14:56 23,1 C 41 % 1024,3 hPa 0,0 l/m 5,0 km/h (1 Bft) N 360 9,1 C 23,1 C
11.08.2012 15:01 23,1 C 41 % 1024,2 hPa 0,0 l/m 9,4 km/h (2 Bft) O-NO 67 9,1 C 23,1 C
11.08.2012 15:06 22,8 C 41 % 1024,4 hPa 0,0 l/m 5,0 km/h (1 Bft) O-NO 67 8,9 C 22,8 C
11.08.2012 15:11 22,3 C 42 % 1024,3 hPa 0,0 l/m 2,9 km/h (1 Bft) NO 45 8,8 C 22,3 C
11.08.2012 15:16 22,1 C 43 % 1024,1 hPa 0,0 l/m 6,8 km/h (2 Bft) N 360 8,9 C 22,1 C
11.08.2012 15:21 21,8 C 43 % 1024,1 hPa 0,0 l/m 2,2 km/h (1 Bft) NO 45 8,7 C 21,8 C
11.08.2012 15:26 21,5 C 44 % 1024,0 hPa 0,0 l/m 5,0 km/h (1 Bft) N-NO 22 8,7 C 21,5 C
11.08.2012 15:31 21,4 C 45 % 1024,0 hPa 0,0 l/m 4,0 km/h (1 Bft) N 360 9,0 C 21,4 C
11.08.2012 15:36 21,6 C 45 % 1024,0 hPa 0,0 l/m 1,8 km/h (1 Bft) N-NW 337 9,2 C 21,6 C
11.08.2012 15:41 22,5 C 45 % 1024,0 hPa 0,0 l/m 0,0 km/h (0 Bft) S-SW 202 10,0 C 22,5 C
11.08.2012 15:46 23,4 C 43 % 1024,0 hPa 0,0 l/m 5,8 km/h (2 Bft) SO 135 10,1 C 23,4 C
11.08.2012 15:51 23,3 C 41 % 1023,9 hPa 0,0 l/m 12,6 km/h (3 Bft) NO 45 9,3 C 23,3 C
11.08.2012 15:56 22,5 C 41 % 1023,9 hPa 0,0 l/m 5,4 km/h (1 Bft) O 90 8,6 C 22,5 C
11.08.2012 16:01 21,9 C 42 % 1023,9 hPa 0,0 l/m 4,0 km/h (1 Bft) NO 45 8,4 C 21,9 C
11.08.2012 16:06 21,8 C 43 % 1023,8 hPa 0,0 l/m 3,2 km/h (1 Bft) NO 45 8,7 C 21,8 C
11.08.2012 16:11 21,6 C 43 % 1023,9 hPa 0,0 l/m 2,9 km/h (1 Bft) O-NO 67 8,5 C 21,6 C
11.08.2012 16:16 21,8 C 42 % 1023,7 hPa 0,0 l/m 4,0 km/h (1 Bft) O-NO 67 8,3 C 21,8 C
11.08.2012 16:21 22,6 C 42 % 1023,7 hPa 0,0 l/m 4,0 km/h (1 Bft) S-SO 157 9,0 C 22,6 C
11.08.2012 16:26 23,3 C 41 % 1023,6 hPa 0,0 l/m 1,8 km/h (1 Bft) S-SO 157 9,3 C 23,3 C
11.08.2012 16:31 23,4 C 41 % 1023,6 hPa 0,0 l/m 3,6 km/h (1 Bft) O 90 9,4 C 23,4 C
11.08.2012 16:36 23,0 C 41 % 1023,5 hPa 0,0 l/m 6,1 km/h (2 Bft) NO 45 9,0 C 23,0 C
11.08.2012 16:41 22,4 C 42 % 1023,5 hPa 0,0 l/m 1,1 km/h (1 Bft) O-NO 67 8,9 C 22,4 C
11.08.2012 16:46 22,1 C 43 % 1023,5 hPa 0,0 l/m 2,2 km/h (1 Bft) O-NO 67 8,9 C 22,1 C
11.08.2012 16:51 21,8 C 43 % 1023,6 hPa 0,0 l/m 7,6 km/h (2 Bft) O-SO 112 8,7 C 21,8 C
11.08.2012 16:56 21,6 C 44 % 1023,6 hPa 0,0 l/m 1,4 km/h (1 Bft) O-NO 67 8,8 C 21,6 C
11.08.2012 17:01 21,3 C 44 % 1023,6 hPa 0,0 l/m 2,9 km/h (1 Bft) O-NO 67 8,5 C 21,3 C
11.08.2012 17:06 21,3 C 45 % 1023,4 hPa 0,0 l/m 0,0 km/h (0 Bft) O-NO 67 8,9 C 21,3 C
11.08.2012 17:11 21,6 C 45 % 1023,3 hPa 0,0 l/m 4,7 km/h (1 Bft) N-NO 22 9,2 C 21,6 C
11.08.2012 17:16 21,8 C 44 % 1023,3 hPa 0,0 l/m 4,0 km/h (1 Bft) O-NO 67 9,0 C 21,8 C
11.08.2012 17:21 21,9 C 44 % 1023,2 hPa 0,0 l/m 4,0 km/h (1 Bft) O 90 9,1 C 21,9 C
11.08.2012 17:26 22,2 C 44 % 1023,2 hPa 0,0 l/m 6,1 km/h (2 Bft) O 90 9,4 C 22,2 C
11.08.2012 17:31 22,4 C 43 % 1023,2 hPa 0,0 l/m 1,4 km/h (1 Bft) N 360 9,2 C 22,4 C
11.08.2012 17:36 22,7 C 44 % 1023,1 hPa 0,0 l/m 2,9 km/h (1 Bft) NO 45 9,8 C 22,7 C
11.08.2012 17:41 22,8 C 42 % 1023,1 hPa 0,0 l/m 0,0 km/h (0 Bft) NO 45 9,2 C 22,8 C
11.08.2012 17:46 22,9 C 43 % 1023,1 hPa 0,0 l/m 2,2 km/h (1 Bft) NW 315 9,6 C 22,9 C
11.08.2012 17:51 23,2 C 42 % 1023,0 hPa 0,0 l/m 9,0 km/h (2 Bft) N-NO 22 9,6 C 23,2 C
11.08.2012 17:56 23,0 C 41 % 1022,9 hPa 0,0 l/m 3,2 km/h (1 Bft) N-NO 22 9,0 C 23,0 C
11.08.2012 18:01 23,1 C 42 % 1022,8 hPa 0,0 l/m 1,1 km/h (1 Bft) O-NO 67 9,5 C 23,1 C
11.08.2012 18:06 23,4 C 43 % 1022,9 hPa 0,0 l/m 1,8 km/h (1 Bft) W 270 10,1 C 23,4 C
11.08.2012 18:11 23,8 C 42 % 1022,9 hPa 0,0 l/m 0,0 km/h (0 Bft) W-NW 292 10,1 C 23,8 C
11.08.2012 18:16 24,2 C 40 % 1022,8 hPa 0,0 l/m 5,0 km/h (1 Bft) NO 45 9,7 C 24,2 C
11.08.2012 18:21 23,5 C 40 % 1022,7 hPa 0,0 l/m 3,2 km/h (1 Bft) O-NO 67 9,1 C 23,5 C
11.08.2012 18:26 22,6 C 42 % 1022,8 hPa 0,0 l/m 4,3 km/h (1 Bft) O-NO 67 9,0 C 22,6 C
11.08.2012 18:31 22,1 C 44 % 1022,7 hPa 0,0 l/m 8,6 km/h (2 Bft) O-NO 67 9,3 C 22,1 C
11.08.2012 18:36 21,7 C 45 % 1022,7 hPa 0,0 l/m 6,1 km/h (2 Bft) NO 45 9,2 C 21,7 C
11.08.2012 18:41 21,4 C 46 % 1022,9 hPa 0,0 l/m 4,0 km/h (1 Bft) O-NO 67 9,3 C 21,4 C
11.08.2012 18:46 21,1 C 47 % 1022,9 hPa 0,0 l/m 8,3 km/h (2 Bft) O-NO 67 9,3 C 21,1 C
11.08.2012 18:51 20,9 C 48 % 1022,9 hPa 0,0 l/m 5,0 km/h (1 Bft) O-NO 67 9,5 C 20,9 C
11.08.2012 18:56 20,8 C 48 % 1022,9 hPa 0,0 l/m 5,0 km/h (1 Bft) NO 45 9,4 C 20,8 C
11.08.2012 19:01 20,6 C 49 % 1022,9 hPa 0,0 l/m 8,3 km/h (2 Bft) O-NO 67 9,5 C 20,6 C
11.08.2012 19:06 20,4 C 50 % 1022,6 hPa 0,0 l/m 4,0 km/h (1 Bft) N 360 9,6 C 20,4 C
11.08.2012 19:11 20,3 C 51 % 1022,6 hPa 0,0 l/m 4,7 km/h (1 Bft) NO 45 9,8 C 20,3 C
11.08.2012 19:16 20,1 C 51 % 1022,6 hPa 0,0 l/m 4,3 km/h (1 Bft) O-NO 67 9,6 C 20,1 C
11.08.2012 19:21 19,9 C 52 % 1022,6 hPa 0,0 l/m 0,0 km/h (0 Bft) NO 45 9,7 C 19,9 C
11.08.2012 19:26 19,8 C 52 % 1022,6 hPa 0,0 l/m 0,0 km/h (0 Bft) NO 45 9,7 C 19,8 C
11.08.2012 19:31 19,6 C 53 % 1022,6 hPa 0,0 l/m 1,8 km/h (1 Bft) NO 45 9,8 C 19,6 C
11.08.2012 19:36 19,4 C 53 % 1022,7 hPa 0,0 l/m 0,0 km/h (0 Bft) O-NO 67 9,6 C 19,4 C
11.08.2012 19:41 19,4 C 54 % 1022,6 hPa 0,0 l/m 2,5 km/h (1 Bft) N-NO 22 9,8 C 19,4 C
11.08.2012 19:46 19,3 C 54 % 1022,6 hPa 0,0 l/m 2,9 km/h (1 Bft) NO 45 9,8 C 19,3 C
11.08.2012 19:51 19,3 C 54 % 1022,6 hPa 0,0 l/m 0,0 km/h (0 Bft) N 360 9,8 C 19,3 C
11.08.2012 19:56 19,3 C 54 % 1022,6 hPa 0,0 l/m 0,0 km/h (0 Bft) O-NO 67 9,8 C 19,3 C
11.08.2012 20:01 19,3 C 54 % 1022,6 hPa 0,0 l/m 1,1 km/h (1 Bft) N-NO 22 9,8 C 19,3 C
11.08.2012 20:06 19,4 C 54 % 1022,5 hPa 0,0 l/m 2,9 km/h (1 Bft) O-NO 67 9,8 C 19,4 C
11.08.2012 20:11 19,4 C 55 % 1022,6 hPa 0,0 l/m 1,8 km/h (1 Bft) O-NO 67 10,1 C 19,4 C
11.08.2012 20:16 19,3 C 55 % 1022,5 hPa 0,0 l/m 2,5 km/h (1 Bft) O-NO 67 10,0 C 19,3 C
11.08.2012 20:21 19,3 C 55 % 1022,6 hPa 0,0 l/m 2,2 km/h (1 Bft) O-NO 67 10,0 C 19,3 C
11.08.2012 20:26 19,1 C 56 % 1022,5 hPa 0,0 l/m 1,8 km/h (1 Bft) O-NO 67 10,1 C 19,1 C
11.08.2012 20:31 19,0 C 56 % 1022,6 hPa 0,0 l/m 0,0 km/h (0 Bft) N-NO 22 10,0 C 19,0 C
11.08.2012 20:36 18,9 C 57 % 1022,6 hPa 0,0 l/m 0,0 km/h (0 Bft) N-NO 22 10,2 C 18,9 C
11.08.2012 20:41 18,8 C 57 % 1022,6 hPa 0,0 l/m 0,0 km/h (0 Bft) O-NO 67 10,1 C 18,8 C
11.08.2012 20:46 18,7 C 57 % 1022,6 hPa 0,0 l/m 0,0 km/h (0 Bft) NO 45 10,0 C 18,7 C
11.08.2012 20:51 18,6 C 58 % 1022,6 hPa 0,0 l/m 0,0 km/h (0 Bft) NO 45 10,2 C 18,6 C
11.08.2012 20:56 18,4 C 58 % 1022,7 hPa 0,0 l/m 2,2 km/h (1 Bft) O-NO 67 10,0 C 18,4 C
11.08.2012 21:01 18,3 C 58 % 1022,7 hPa 0,0 l/m 0,0 km/h (0 Bft) O-NO 67 9,9 C 18,3 C
11.08.2012 21:06 18,2 C 59 % 1022,8 hPa 0,0 l/m 0,0 km/h (0 Bft) O-NO 67 10,1 C 18,2 C
11.08.2012 21:11 18,1 C 58 % 1022,8 hPa 0,0 l/m 3,6 km/h (1 Bft) NO 45 9,7 C 18,1 C
11.08.2012 21:16 18,1 C 58 % 1022,8 hPa 0,0 l/m 4,7 km/h (1 Bft) O-NO 67 9,7 C 18,1 C
11.08.2012 21:21 18,0 C 58 % 1022,9 hPa 0,0 l/m 6,5 km/h (2 Bft) O-NO 67 9,6 C 18,0 C
11.08.2012 21:26 17,9 C 58 % 1023,0 hPa 0,0 l/m 3,2 km/h (1 Bft) NO 45 9,5 C 17,9 C
11.08.2012 21:31 17,8 C 59 % 1023,0 hPa 0,0 l/m 4,3 km/h (1 Bft) NO 45 9,7 C 17,8 C
11.08.2012 21:36 17,6 C 59 % 1022,9 hPa 0,0 l/m 5,4 km/h (1 Bft) NO 45 9,5 C 17,6 C
11.08.2012 21:41 17,5 C 59 % 1022,9 hPa 0,0 l/m 2,9 km/h (1 Bft) O-NO 67 9,4 C 17,5 C
11.08.2012 21:46 17,3 C 60 % 1022,8 hPa 0,0 l/m 1,8 km/h (1 Bft) O-NO 67 9,5 C 17,3 C
11.08.2012 21:51 17,3 C 60 % 1022,9 hPa 0,0 l/m 0,0 km/h (0 Bft) O-NO 67 9,5 C 17,3 C
11.08.2012 21:56 17,2 C 61 % 1022,8 hPa 0,0 l/m 0,0 km/h (0 Bft) O-NO 67 9,6 C 17,2 C
11.08.2012 22:01 17,1 C 61 % 1022,8 hPa 0,0 l/m 2,2 km/h (1 Bft) O-NO 67 9,5 C 17,1 C
11.08.2012 22:06 16,9 C 62 % 1022,9 hPa 0,0 l/m 2,5 km/h (1 Bft) O-NO 67 9,6 C 16,9 C
11.08.2012 22:11 16,8 C 62 % 1022,8 hPa 0,0 l/m 0,0 km/h (0 Bft) O-NO 67 9,5 C 16,8 C
11.08.2012 22:16 16,7 C 63 % 1022,9 hPa 0,0 l/m 2,5 km/h (1 Bft) O-NO 67 9,6 C 16,7 C
11.08.2012 22:21 16,5 C 63 % 1022,9 hPa 0,0 l/m 2,5 km/h (1 Bft) O 90 9,4 C 16,5 C
11.08.2012 22:26 16,4 C 64 % 1023,0 hPa 0,0 l/m 2,5 km/h (1 Bft) O-NO 67 9,6 C 16,4 C
11.08.2012 22:31 16,3 C 65 % 1023,1 hPa 0,0 l/m 3,2 km/h (1 Bft) O-SO 112 9,7 C 16,3 C
11.08.2012 22:36 16,3 C 66 % 1023,0 hPa 0,0 l/m 3,2 km/h (1 Bft) O-NO 67 9,9 C 16,3 C
11.08.2012 22:41 16,2 C 66 % 1023,0 hPa 0,0 l/m 1,8 km/h (1 Bft) SO 135 9,8 C 16,2 C
11.08.2012 22:46 16,1 C 66 % 1023,1 hPa 0,0 l/m 2,9 km/h (1 Bft) O-SO 112 9,7 C 16,1 C
11.08.2012 22:51 15,9 C 66 % 1023,1 hPa 0,0 l/m 2,2 km/h (1 Bft) O 90 9,6 C 15,9 C
11.08.2012 22:56 15,9 C 67 % 1023,1 hPa 0,0 l/m 2,2 km/h (1 Bft) O 90 9,8 C 15,9 C
11.08.2012 23:01 15,8 C 67 % 1023,2 hPa 0,0 l/m 1,4 km/h (1 Bft) O 90 9,7 C 15,8 C
11.08.2012 23:06 15,6 C 67 % 1023,2 hPa 0,0 l/m 1,4 km/h (1 Bft) O 90 9,5 C 15,6 C
11.08.2012 23:11 15,4 C 68 % 1023,2 hPa 0,0 l/m 3,2 km/h (1 Bft) O-NO 67 9,5 C 15,4 C
11.08.2012 23:16 15,3 C 68 % 1023,2 hPa 0,0 l/m 3,2 km/h (1 Bft) O 90 9,4 C 15,3 C
11.08.2012 23:21 15,1 C 69 % 1023,2 hPa 0,0 l/m 4,0 km/h (1 Bft) O 90 9,5 C 15,1 C
11.08.2012 23:26 14,9 C 69 % 1023,2 hPa 0,0 l/m 0,0 km/h (0 Bft) O 90 9,3 C 14,9 C
11.08.2012 23:31 14,9 C 70 % 1023,3 hPa 0,0 l/m 0,0 km/h (0 Bft) O 90 9,5 C 14,9 C
11.08.2012 23:36 14,9 C 70 % 1023,2 hPa 0,0 l/m 3,2 km/h (1 Bft) O-NO 67 9,5 C 14,9 C
11.08.2012 23:41 14,8 C 71 % 1023,2 hPa 0,0 l/m 4,7 km/h (1 Bft) O-NO 67 9,6 C 14,8 C
11.08.2012 23:46 14,7 C 71 % 1023,2 hPa 0,0 l/m 2,2 km/h (1 Bft) O-NO 67 9,5 C 14,7 C
11.08.2012 23:51 14,6 C 71 % 1023,3 hPa 0,0 l/m 5,8 km/h (2 Bft) O 90 9,4 C 14,6 C
11.08.2012 23:56 14,6 C 72 % 1023,2 hPa 0,0 l/m 2,2 km/h (1 Bft) O-NO 67 9,6 C 14,6 C
_ Min-Zeit 06:01 18:16 20:06 - 01:21 - - 16:16 06:01
Minimum _ 11,6 C 40 % 1022,5 hPa - 0,0 km/h (0 Bft) - - 8,3 C 11,6 C
_ Max-Zeit 18:16 06:51 10:41 00:01 13:41 - - 08:56 18:16
Maximum _ 24,2 C 89 % 1025,1 hPa 0,0 l/m 13,0 km/h
O-SO (3 Bft)
- - 12,5 C 24,2 C
Durchschnitt _ 17,6 C 65 % 1023,8 hPa #0,0 l/m 3,5 km/h (1 Bft) O-NO - 10,3 C 17,6 C
(c) by David Heller